createdAt,value
2018-12-22T00:02:10.474Z,87.63
2018-12-22T00:04:40.259Z,87.71
2018-12-22T00:07:09.969Z,87.95
2018-12-22T00:09:39.714Z,87.89
2018-12-22T00:12:09.526Z,88.44
2018-12-22T00:14:39.238Z,87.74
2018-12-22T00:17:08.974Z,88.60
2018-12-22T00:19:38.691Z,88.27
2018-12-22T00:22:08.414Z,87.33
2018-12-22T00:24:38.118Z,86.45
2018-12-22T00:27:07.850Z,86.54
2018-12-22T00:29:37.674Z,86.09
2018-12-22T00:32:07.388Z,86.37
2018-12-22T00:34:37.076Z,85.97
2018-12-22T00:37:06.790Z,86.77
2018-12-22T00:39:36.498Z,86.00
2018-12-22T00:42:06.213Z,85.97
2018-12-22T00:44:36.012Z,86.13
2018-12-22T00:47:05.715Z,85.96
2018-12-22T00:49:35.434Z,85.37
2018-12-22T00:52:05.247Z,85.93
2018-12-22T00:54:35.017Z,85.46
2018-12-22T00:57:04.881Z,85.85
2018-12-22T00:59:34.707Z,86.01
2018-12-22T01:02:04.592Z,86.30
2018-12-22T01:04:34.341Z,85.94
2018-12-22T01:07:04.044Z,86.50
2018-12-22T01:09:33.771Z,87.25
2018-12-22T01:12:03.524Z,87.16
2018-12-22T01:14:33.322Z,87.28
2018-12-22T01:17:03.182Z,87.26
2018-12-22T01:19:32.981Z,87.81
2018-12-22T01:22:02.761Z,87.44
2018-12-22T01:24:33.341Z,87.99
2018-12-22T01:27:03.251Z,88.39
2018-12-22T01:29:32.996Z,88.36
2018-12-22T01:32:02.885Z,88.39
2018-12-22T01:34:32.756Z,88.56
2018-12-22T01:37:02.596Z,88.25
2018-12-22T01:39:32.348Z,88.42
2018-12-22T01:42:02.113Z,88.59
2018-12-22T01:44:31.866Z,88.58
2018-12-22T01:47:01.626Z,88.99
2018-12-22T01:49:31.366Z,88.54
2018-12-22T01:52:01.288Z,88.87
2018-12-22T01:54:31.050Z,88.35
2018-12-22T01:57:00.812Z,88.92
2018-12-22T01:59:31.121Z,88.69
2018-12-22T02:02:01.033Z,88.51
2018-12-22T02:04:30.767Z,88.31
2018-12-22T02:07:00.709Z,89.02
2018-12-22T02:09:30.460Z,88.95
2018-12-22T02:12:00.251Z,89.35
2018-12-22T02:14:30.011Z,89.60
2018-12-22T02:16:59.837Z,89.22
2018-12-22T02:19:29.751Z,89.33
2018-12-22T02:21:59.505Z,89.88
2018-12-22T02:24:29.281Z,90.69
2018-12-22T02:26:59.089Z,90.95
2018-12-22T02:29:28.860Z,90.91
2018-12-22T02:31:58.682Z,90.99
2018-12-22T02:34:28.432Z,90.67
2018-12-22T02:36:58.237Z,91.47
2018-12-22T02:39:28.008Z,91.62
2018-12-22T02:41:57.804Z,91.62
2018-12-22T02:44:27.561Z,91.43
2018-12-22T02:46:57.440Z,91.70
2018-12-22T02:49:27.200Z,91.83
2018-12-22T02:51:57.016Z,91.91
2018-12-22T02:54:26.774Z,91.87
2018-12-22T02:56:56.537Z,91.77
2018-12-22T02:59:26.372Z,92.00
2018-12-22T03:01:56.134Z,91.74
2018-12-22T03:04:25.885Z,91.59
2018-12-22T03:06:55.751Z,91.85
2018-12-22T03:09:25.483Z,92.08
2018-12-22T03:11:55.345Z,93.02
2018-12-22T03:14:25.147Z,93.30
2018-12-22T03:16:54.983Z,94.47
2018-12-22T03:19:24.861Z,95.37
2018-12-22T03:21:54.925Z,96.15
2018-12-22T03:24:24.754Z,96.82
2018-12-22T03:26:54.561Z,97.04
2018-12-22T03:29:24.448Z,97.75
2018-12-22T03:31:55.165Z,97.63
2018-12-22T03:34:24.941Z,98.75
2018-12-22T03:36:54.735Z,98.70
2018-12-22T03:39:24.468Z,98.89
2018-12-22T03:41:54.516Z,98.51
2018-12-22T03:44:24.283Z,99.06
2018-12-22T03:46:54.031Z,98.75
2018-12-22T03:49:23.849Z,99.06
2018-12-22T03:51:53.758Z,99.16
2018-12-22T03:54:23.633Z,99.33
2018-12-22T03:56:53.500Z,99.76
2018-12-22T03:59:25.006Z,99.41
2018-12-22T04:01:55.380Z,100.00
2018-12-22T04:04:26.179Z,100.00
2018-12-22T04:06:56.060Z,100.00
2018-12-22T04:09:25.804Z,100.00
2018-12-22T04:11:56.302Z,100.00
2018-12-22T04:14:26.048Z,99.22
2018-12-22T04:16:55.952Z,99.58
2018-12-22T04:19:25.770Z,99.50
2018-12-22T04:21:56.423Z,99.60
2018-12-22T04:24:26.191Z,99.57
2018-12-22T04:26:55.980Z,99.35
2018-12-22T04:29:33.626Z,98.77
2018-12-22T04:31:57.760Z,98.28
2018-12-22T04:34:27.485Z,98.53
2018-12-22T04:36:57.264Z,98.36
2018-12-22T04:39:27.014Z,97.31
2018-12-22T04:41:56.880Z,96.74
2018-12-22T04:44:26.644Z,96.45
2018-12-22T04:46:56.408Z,96.74
2018-12-22T04:49:26.184Z,95.62
2018-12-22T04:51:56.158Z,95.59
2018-12-22T04:54:26.013Z,95.11
2018-12-22T04:56:55.840Z,95.28
2018-12-22T04:59:25.612Z,94.74
2018-12-22T05:01:56.033Z,94.94
2018-12-22T05:04:25.968Z,94.92
2018-12-22T05:06:55.714Z,95.21
2018-12-22T05:09:25.514Z,95.08
2018-12-22T05:11:55.387Z,94.58
2018-12-22T05:14:25.354Z,94.74
2018-12-22T05:16:55.261Z,94.13
2018-12-22T05:19:25.036Z,94.62
2018-12-22T05:21:55.064Z,94.67
2018-12-22T05:24:24.840Z,94.05
2018-12-22T05:26:54.675Z,93.09
2018-12-22T05:29:24.516Z,93.90
2018-12-22T05:31:54.308Z,94.23
2018-12-22T05:34:24.087Z,93.99
2018-12-22T05:36:53.868Z,94.09
2018-12-22T05:39:23.643Z,93.71
2018-12-22T05:41:53.536Z,94.64
2018-12-22T05:44:23.466Z,94.32
2018-12-22T05:46:53.215Z,93.92
2018-12-22T05:49:23.086Z,93.84
2018-12-22T05:51:52.873Z,94.05
2018-12-22T05:54:22.639Z,92.42
2018-12-22T05:56:52.696Z,93.04
2018-12-22T05:59:22.469Z,92.74
2018-12-22T06:01:52.400Z,91.32
2018-12-22T06:04:22.341Z,89.79
2018-12-22T06:06:52.186Z,90.09
2018-12-22T06:09:21.976Z,90.25
2018-12-22T06:11:51.860Z,87.88
2018-12-22T06:14:21.730Z,88.65
2018-12-22T06:16:52.527Z,88.07
2018-12-22T06:19:22.408Z,87.87
2018-12-22T06:21:52.178Z,88.07
2018-12-22T06:24:22.062Z,86.41
2018-12-22T06:26:51.916Z,85.63
2018-12-22T06:29:21.856Z,85.66
2018-12-22T06:31:51.626Z,85.39
2018-12-22T06:34:21.475Z,84.73
2018-12-22T06:36:51.261Z,83.26
2018-12-22T06:39:21.143Z,83.76
2018-12-22T06:41:50.951Z,83.73
2018-12-22T06:44:20.727Z,83.62
2018-12-22T06:46:50.515Z,82.91
2018-12-22T06:49:20.320Z,82.21
2018-12-22T06:51:50.072Z,83.28
2018-12-22T06:54:19.921Z,83.43
2018-12-22T06:56:49.694Z,83.44
2018-12-22T06:59:19.477Z,83.07
2018-12-22T07:01:49.287Z,81.70
2018-12-22T07:04:19.108Z,81.97
2018-12-22T07:06:48.916Z,82.18
2018-12-22T07:09:18.712Z,81.56
2018-12-22T07:11:48.520Z,81.01
2018-12-22T07:14:18.376Z,81.33
2018-12-22T07:16:48.130Z,81.82
2018-12-22T07:19:17.928Z,81.94
2018-12-22T07:21:47.804Z,82.01
2018-12-22T07:24:17.716Z,81.89
2018-12-22T07:26:47.612Z,81.77
2018-12-22T07:29:17.398Z,81.18
2018-12-22T07:31:47.311Z,81.10
2018-12-22T07:34:17.091Z,81.82
2018-12-22T07:36:46.991Z,81.91
2018-12-22T07:39:16.896Z,82.25
2018-12-22T07:41:46.725Z,83.20
2018-12-22T07:44:16.616Z,82.82
2018-12-22T07:46:46.520Z,81.70
2018-12-22T07:49:16.349Z,83.01
2018-12-22T07:51:46.107Z,83.29
2018-12-22T07:54:15.991Z,82.96
2018-12-22T07:56:45.764Z,83.09
2018-12-22T07:59:15.526Z,83.40
2018-12-22T08:01:45.274Z,83.98
2018-12-22T08:04:15.198Z,83.28
2018-12-22T08:06:45.361Z,82.68
2018-12-22T08:09:15.745Z,83.23
2018-12-22T08:11:46.248Z,82.79
2018-12-22T08:14:16.350Z,81.85
2018-12-22T08:16:46.395Z,82.82
2018-12-22T08:19:16.224Z,82.78
2018-12-22T08:21:45.991Z,83.14
2018-12-22T08:24:15.820Z,83.62
2018-12-22T08:26:45.563Z,83.53
2018-12-22T08:29:16.387Z,83.46
2018-12-22T08:31:46.267Z,84.13
2018-12-22T08:34:16.068Z,84.05
2018-12-22T08:36:45.825Z,84.39
2018-12-22T08:39:15.593Z,84.19
2018-12-22T08:41:45.337Z,83.85
2018-12-22T08:44:15.119Z,82.92
2018-12-22T08:46:44.870Z,82.97
2018-12-22T08:49:14.768Z,86.23
2018-12-22T08:51:44.544Z,81.82
2018-12-22T08:54:14.318Z,83.14
2018-12-22T08:56:44.101Z,83.41
2018-12-22T08:59:13.992Z,81.64
2018-12-22T09:01:43.725Z,79.94
2018-12-22T09:04:13.691Z,80.00
2018-12-22T09:06:43.484Z,78.52
2018-12-22T09:09:13.368Z,78.32
2018-12-22T09:11:43.209Z,78.21
2018-12-22T09:14:13.077Z,77.55
2018-12-22T09:16:42.827Z,77.36
2018-12-22T09:19:12.614Z,77.50
2018-12-22T09:21:42.400Z,77.52
2018-12-22T09:24:12.169Z,77.16
2018-12-22T09:26:41.965Z,76.85
2018-12-22T09:29:11.756Z,76.08
2018-12-22T09:31:41.680Z,77.00
2018-12-22T09:34:13.541Z,75.70
2018-12-22T09:36:43.653Z,75.78
2018-12-22T09:39:13.512Z,76.23
2018-12-22T09:41:43.393Z,76.28
2018-12-22T09:44:13.454Z,76.76
2018-12-22T09:46:43.356Z,77.23
2018-12-22T09:49:13.197Z,76.84
2018-12-22T09:51:43.003Z,77.10
2018-12-22T09:54:12.874Z,76.70
2018-12-22T09:56:42.640Z,77.58
2018-12-22T09:59:12.524Z,77.23
2018-12-22T10:01:42.326Z,77.82
2018-12-22T10:04:12.073Z,78.51
2018-12-22T10:06:41.881Z,77.75
2018-12-22T10:09:11.648Z,77.84
2018-12-22T10:11:41.415Z,77.79
2018-12-22T10:14:11.347Z,77.05
2018-12-22T10:16:41.152Z,76.50
2018-12-22T10:19:11.067Z,76.40
2018-12-22T10:21:40.819Z,76.75
2018-12-22T10:24:10.600Z,77.05
2018-12-22T10:26:40.403Z,75.79
2018-12-22T10:29:10.207Z,74.82
2018-12-22T10:31:40.013Z,74.95
2018-12-22T10:34:09.838Z,75.47
2018-12-22T10:36:39.602Z,75.91
2018-12-22T10:39:09.404Z,75.43
2018-12-22T10:41:39.325Z,76.20
2018-12-22T10:44:09.100Z,76.64
2018-12-22T10:46:38.886Z,76.45
2018-12-22T10:49:08.655Z,75.13
2018-12-22T10:51:38.444Z,74.74
2018-12-22T10:54:08.301Z,73.90
2018-12-22T10:56:38.079Z,74.29
2018-12-22T10:59:07.852Z,74.27
2018-12-22T11:01:37.600Z,74.61
2018-12-22T11:04:07.567Z,75.05
2018-12-22T11:06:37.355Z,74.44
2018-12-22T11:09:09.874Z,74.59
2018-12-22T11:11:39.861Z,74.25
2018-12-22T11:14:11.912Z,74.41
2018-12-22T11:16:41.599Z,73.33
2018-12-22T11:19:11.430Z,74.45
2018-12-22T11:21:41.255Z,75.18
2018-12-22T11:24:11.040Z,74.89
2018-12-22T11:26:40.964Z,74.51
2018-12-22T11:29:10.853Z,74.81
2018-12-22T11:31:40.618Z,74.20
2018-12-22T11:34:10.466Z,75.55
2018-12-22T11:36:40.282Z,75.21
2018-12-22T11:39:10.092Z,76.23
2018-12-22T11:41:40.557Z,74.98
2018-12-22T11:44:10.497Z,75.09
2018-12-22T11:46:41.322Z,75.38
2018-12-22T11:49:21.450Z,75.04
2018-12-22T11:51:51.217Z,75.68
2018-12-22T11:54:21.073Z,75.33
2018-12-22T11:56:50.932Z,75.37
2018-12-22T11:59:21.132Z,76.04
2018-12-22T12:01:50.948Z,74.85
2018-12-22T12:04:20.765Z,75.09
2018-12-22T12:06:50.528Z,74.82
2018-12-22T12:09:21.387Z,73.81
2018-12-22T12:11:51.372Z,74.05
2018-12-22T12:14:21.335Z,72.41
2018-12-22T12:17:04.561Z,73.13
2018-12-22T12:19:36.008Z,72.67
2018-12-22T12:22:06.248Z,73.30
2018-12-22T12:24:36.163Z,72.68
2018-12-22T12:27:06.027Z,72.40
2018-12-22T12:29:35.978Z,80.05
2018-12-22T12:32:06.022Z,72.28
2018-12-22T12:34:35.829Z,71.81
2018-12-22T12:37:05.792Z,69.06
2018-12-22T12:39:35.619Z,68.00
2018-12-22T12:42:05.671Z,68.98
2018-12-22T12:44:35.878Z,68.40
2018-12-22T12:47:06.258Z,68.33
2018-12-22T12:49:36.068Z,69.04
2018-12-22T12:52:06.224Z,69.36
2018-12-22T12:54:36.193Z,69.39
2018-12-22T12:57:06.436Z,69.61
2018-12-22T12:59:36.291Z,70.52
2018-12-22T13:02:08.058Z,68.55
2018-12-22T13:04:37.862Z,69.03
2018-12-22T13:07:07.649Z,69.27
2018-12-22T13:09:38.527Z,69.56
2018-12-22T13:12:14.915Z,69.92
2018-12-22T13:14:47.240Z,69.68
2018-12-22T13:17:17.136Z,69.47
2018-12-22T13:19:46.980Z,69.36
2018-12-22T13:22:16.863Z,70.00
2018-12-22T13:24:46.755Z,70.24
2018-12-22T13:27:16.614Z,70.37
2018-12-22T13:29:46.439Z,70.27
2018-12-22T13:32:16.356Z,69.90
2018-12-22T13:34:47.281Z,71.29
2018-12-22T13:37:17.024Z,71.51
2018-12-22T13:39:46.825Z,72.78
2018-12-22T13:42:16.697Z,72.84
2018-12-22T13:44:46.523Z,73.35
2018-12-22T13:47:16.312Z,73.37
2018-12-22T13:49:46.244Z,73.78
2018-12-22T13:52:16.012Z,74.12
2018-12-22T13:54:45.889Z,73.45
2018-12-22T13:57:15.775Z,73.81
2018-12-22T13:59:45.520Z,73.95
2018-12-22T14:02:18.253Z,74.20
2018-12-22T14:04:47.085Z,73.79
2018-12-22T14:07:16.854Z,75.00
2018-12-22T14:09:46.808Z,75.15
2018-12-22T14:12:16.775Z,78.03
2018-12-22T14:14:46.544Z,79.31
2018-12-22T14:17:23.072Z,77.44
2018-12-22T14:19:58.433Z,78.91
2018-12-22T14:22:29.140Z,77.44
2018-12-22T14:25:00.752Z,78.30
2018-12-22T14:27:31.429Z,78.92
2018-12-22T14:30:01.408Z,79.88
2018-12-22T14:32:31.408Z,77.70
2018-12-22T14:35:09.923Z,78.68
2018-12-22T14:37:39.961Z,77.72
2018-12-22T14:40:11.132Z,77.84
2018-12-22T14:42:41.180Z,79.02
2018-12-22T14:45:12.328Z,78.13
2018-12-22T14:47:42.319Z,78.28
2018-12-22T14:50:12.950Z,79.01
2018-12-22T14:52:42.699Z,78.50
2018-12-22T14:55:12.646Z,77.85
2018-12-22T14:57:50.586Z,77.89
2018-12-22T15:00:20.384Z,78.55
2018-12-22T15:02:51.372Z,78.24
2018-12-22T15:05:21.389Z,79.13
2018-12-22T15:07:51.212Z,78.54
2018-12-22T15:10:22.381Z,78.26
2018-12-22T15:12:52.220Z,79.15
2018-12-22T15:15:22.228Z,78.04
2018-12-22T15:17:52.033Z,78.33
2018-12-22T15:20:24.687Z,77.99
2018-12-22T15:22:54.986Z,78.27
2018-12-22T15:25:25.004Z,78.85
2018-12-22T15:27:54.895Z,79.34
2018-12-22T15:30:24.837Z,78.97
2018-12-22T15:32:55.052Z,79.79
2018-12-22T15:35:24.992Z,80.29
2018-12-22T15:37:54.789Z,80.60
2018-12-22T15:40:24.722Z,81.21
2018-12-22T15:42:54.537Z,80.27
2018-12-22T15:45:24.432Z,81.30
2018-12-22T15:47:54.222Z,81.79
2018-12-22T15:50:25.989Z,82.16
2018-12-22T15:52:55.916Z,82.73
2018-12-22T15:55:25.715Z,84.11
2018-12-22T15:57:56.554Z,82.71
2018-12-22T16:00:26.496Z,82.97
2018-12-22T16:02:56.273Z,82.00
2018-12-22T16:05:26.160Z,82.11
2018-12-22T16:07:57.127Z,82.55
2018-12-22T16:10:27.118Z,83.25
2018-12-22T16:12:56.945Z,82.96
2018-12-22T16:15:27.184Z,82.87
2018-12-22T16:17:56.976Z,83.26
2018-12-22T16:20:26.805Z,83.37
2018-12-22T16:23:00.799Z,83.44
2018-12-22T16:25:30.829Z,83.16
2018-12-22T16:28:07.084Z,82.43
2018-12-22T16:30:43.447Z,82.49
2018-12-22T16:33:13.282Z,81.85
2018-12-22T16:35:43.077Z,81.69
2018-12-22T16:38:12.979Z,81.92
2018-12-22T16:40:42.851Z,81.92
2018-12-22T16:43:14.277Z,81.51
2018-12-22T16:45:47.415Z,80.93
2018-12-22T16:48:18.112Z,79.96
2018-12-22T16:50:48.277Z,79.67
2018-12-22T16:53:18.097Z,80.44
2018-12-22T16:55:47.877Z,79.94
2018-12-22T16:58:27.019Z,79.31
2018-12-22T17:01:01.720Z,78.10
2018-12-22T17:03:31.776Z,78.61
2018-12-22T17:06:03.877Z,78.53
2018-12-22T17:08:33.706Z,78.48
2018-12-22T17:11:04.832Z,78.74
2018-12-22T17:13:34.663Z,78.60
2018-12-22T17:16:04.701Z,79.29
2018-12-22T17:18:34.542Z,79.88
2018-12-22T17:21:25.365Z,79.84
2018-12-22T17:24:02.567Z,79.26
2018-12-22T17:26:34.847Z,79.47
2018-12-22T17:29:04.729Z,79.38
2018-12-22T17:31:34.704Z,80.24
2018-12-22T17:34:04.603Z,80.49
2018-12-22T17:36:34.392Z,80.62
2018-12-22T17:39:07.055Z,80.51
2018-12-22T17:41:36.989Z,79.99
2018-12-22T17:44:06.778Z,80.56
2018-12-22T17:46:36.647Z,80.40
2018-12-22T17:49:07.743Z,80.10
2018-12-22T17:51:37.549Z,80.39
2018-12-22T17:54:07.391Z,80.48
2018-12-22T17:56:37.303Z,79.84
2018-12-22T17:59:07.176Z,79.39
2018-12-22T18:01:43.936Z,78.86
2018-12-22T18:04:13.691Z,78.72
2018-12-22T18:06:43.476Z,79.51
2018-12-22T18:09:13.446Z,79.68
2018-12-22T18:11:43.260Z,80.17
2018-12-22T18:14:13.574Z,79.39
2018-12-22T18:16:43.381Z,80.15
2018-12-22T18:19:13.171Z,79.98
2018-12-22T18:21:43.076Z,80.45
2018-12-22T18:24:13.615Z,80.22
2018-12-22T18:26:43.400Z,80.08
2018-12-22T18:29:13.205Z,80.40
2018-12-22T18:31:43.217Z,81.97
2018-12-22T18:34:13.749Z,80.71
2018-12-22T18:36:43.545Z,80.36
2018-12-22T18:39:13.447Z,80.91
2018-12-22T18:41:44.055Z,80.98
2018-12-22T18:44:14.505Z,81.17
2018-12-22T18:46:44.375Z,81.55
2018-12-22T18:49:16.227Z,80.81
2018-12-22T18:51:46.073Z,80.29
2018-12-22T18:54:15.884Z,81.07
2018-12-22T18:56:45.765Z,80.95
2018-12-22T18:59:15.570Z,80.83
2018-12-22T19:01:45.355Z,80.86
2018-12-22T19:04:15.249Z,80.61
2018-12-22T19:06:45.035Z,80.76
2018-12-22T19:09:21.204Z,80.44
2018-12-22T19:11:51.109Z,80.48
2018-12-22T19:14:20.940Z,80.36
2018-12-22T19:16:50.741Z,79.94
2018-12-22T19:19:20.607Z,79.93
2018-12-22T19:21:50.385Z,80.18
2018-12-22T19:24:20.286Z,79.96
2018-12-22T19:26:50.116Z,80.78
2018-12-22T19:29:19.879Z,80.42
2018-12-22T19:31:50.580Z,80.26
2018-12-22T19:34:20.377Z,79.31
2018-12-22T19:36:50.182Z,78.56
2018-12-22T19:39:20.029Z,78.90
2018-12-22T19:41:49.811Z,79.76
2018-12-22T19:44:19.697Z,79.30
2018-12-22T19:46:49.524Z,80.11
2018-12-22T19:49:19.296Z,80.90
2018-12-22T19:51:49.104Z,80.94
2018-12-22T19:54:18.869Z,80.68
2018-12-22T19:56:48.632Z,80.28
2018-12-22T19:59:18.403Z,80.73
2018-12-22T20:01:48.270Z,81.11
2018-12-22T20:04:18.076Z,80.89
2018-12-22T20:06:47.812Z,80.66
2018-12-22T20:09:17.608Z,80.45
2018-12-22T20:11:47.638Z,80.39
2018-12-22T20:14:17.456Z,80.51
2018-12-22T20:16:47.290Z,79.92
2018-12-22T20:19:17.046Z,79.60
2018-12-22T20:21:46.935Z,80.06
2018-12-22T20:24:16.820Z,79.90
2018-12-22T20:26:46.652Z,80.85
2018-12-22T20:29:16.432Z,80.16
2018-12-22T20:31:47.362Z,80.73
2018-12-22T20:34:17.237Z,81.16
2018-12-22T20:36:47.164Z,81.00
2018-12-22T20:39:17.239Z,81.16
2018-12-22T20:41:47.139Z,80.42
2018-12-22T20:44:17.213Z,80.20
2018-12-22T20:46:47.207Z,80.38
2018-12-22T20:49:16.940Z,80.23
2018-12-22T20:51:46.771Z,80.02
2018-12-22T20:54:16.827Z,80.25
2018-12-22T20:56:46.663Z,79.74
2018-12-22T20:59:16.428Z,79.37
2018-12-22T21:01:46.192Z,79.75
2018-12-22T21:04:19.950Z,78.99
2018-12-22T21:06:48.755Z,78.84
2018-12-22T21:09:18.511Z,78.83
2018-12-22T21:11:48.294Z,79.35
2018-12-22T21:14:18.076Z,80.26
2018-12-22T21:16:47.887Z,78.39
2018-12-22T21:19:17.735Z,79.40
2018-12-22T21:21:47.616Z,79.22
2018-12-22T21:24:17.812Z,78.89
2018-12-22T21:26:47.607Z,80.07
2018-12-22T21:29:17.373Z,79.65
2018-12-22T21:31:47.133Z,79.98
2018-12-22T21:34:17.307Z,79.53
2018-12-22T21:36:47.232Z,79.56
2018-12-22T21:39:17.094Z,79.04
2018-12-22T21:41:46.863Z,79.07
2018-12-22T21:44:17.660Z,79.72
2018-12-22T21:46:48.797Z,79.63
2018-12-22T21:49:18.557Z,80.31
2018-12-22T21:51:48.340Z,80.08
2018-12-22T21:54:18.637Z,81.21
2018-12-22T21:56:48.420Z,81.59
2018-12-22T21:59:18.276Z,81.63
2018-12-22T22:01:48.161Z,82.15
2018-12-22T22:04:18.526Z,83.10
2018-12-22T22:06:48.263Z,83.97
2018-12-22T22:09:19.212Z,85.31
2018-12-22T22:11:49.159Z,84.84
2018-12-22T22:14:19.208Z,85.89
2018-12-22T22:16:49.013Z,85.29
2018-12-22T22:19:18.783Z,85.38
2018-12-22T22:21:48.543Z,86.04
2018-12-22T22:24:19.456Z,87.02
2018-12-22T22:26:49.708Z,86.96
2018-12-22T22:29:19.843Z,86.75
2018-12-22T22:31:50.174Z,87.30
2018-12-22T22:34:20.021Z,87.27
2018-12-22T22:36:49.882Z,87.60
2018-12-22T22:39:19.867Z,87.89
2018-12-22T22:41:49.675Z,87.90
2018-12-22T22:44:19.617Z,88.14
2018-12-22T22:46:49.460Z,88.30
2018-12-22T22:49:19.237Z,89.37
2018-12-22T22:51:48.991Z,88.65
2018-12-22T22:54:18.967Z,88.95
2018-12-22T22:56:48.865Z,88.70
2018-12-22T22:59:18.665Z,88.24
2018-12-22T23:01:48.687Z,88.12
2018-12-22T23:04:19.449Z,87.67
2018-12-22T23:06:49.251Z,87.17
2018-12-22T23:09:19.146Z,87.50
2018-12-22T23:11:49.092Z,87.47
2018-12-22T23:14:19.197Z,87.07
2018-12-22T23:16:49.946Z,87.62
2018-12-22T23:19:19.704Z,86.89
2018-12-22T23:21:49.555Z,87.28
2018-12-22T23:24:19.741Z,86.93
2018-12-22T23:26:49.517Z,87.37
2018-12-22T23:29:19.316Z,86.93
2018-12-22T23:31:49.133Z,86.38
2018-12-22T23:34:19.907Z,86.43
2018-12-22T23:36:49.796Z,86.22
2018-12-22T23:39:19.726Z,86.13
2018-12-22T23:41:49.505Z,86.78
2018-12-22T23:44:21.313Z,86.60
2018-12-22T23:46:51.296Z,86.66
2018-12-22T23:49:21.232Z,86.97
2018-12-22T23:51:51.113Z,86.87
2018-12-22T23:54:21.037Z,87.02
2018-12-22T23:56:50.832Z,86.24
2018-12-22T23:59:20.662Z,85.98
